sensor_id;sensor_type;location;lat;lon;timestamp;temperature;humidity
16243;DHT22;11719;51.052;6.982;2023-07-20T00:02:00;22.10;99.90
16243;DHT22;11719;51.052;6.982;2023-07-20T00:04:25;22.10;99.90
16243;DHT22;11719;51.052;6.982;2023-07-20T00:06:51;22.10;99.90
16243;DHT22;11719;51.052;6.982;2023-07-20T00:09:17;22.10;99.90
16243;DHT22;11719;51.052;6.982;2023-07-20T00:11:49;22.00;99.90
16243;DHT22;11719;51.052;6.982;2023-07-20T00:14:16;22.00;99.90
16243;DHT22;11719;51.052;6.982;2023-07-20T00:16:45;22.00;99.90
16243;DHT22;11719;51.052;6.982;2023-07-20T00:19:12;22.00;99.90
16243;DHT22;11719;51.052;6.982;2023-07-20T00:21:38;22.00;99.90
16243;DHT22;11719;51.052;6.982;2023-07-20T00:24:06;22.10;99.90
16243;DHT22;11719;51.052;6.982;2023-07-20T00:26:32;22.10;99.90
16243;DHT22;11719;51.052;6.982;2023-07-20T00:28:57;22.10;99.90
16243;DHT22;11719;51.052;6.982;2023-07-20T00:31:23;22.10;99.90
16243;DHT22;11719;51.052;6.982;2023-07-20T00:33:49;22.00;99.90
16243;DHT22;11719;51.052;6.982;2023-07-20T00:36:15;21.90;99.90
16243;DHT22;11719;51.052;6.982;2023-07-20T00:38:41;21.90;99.90
16243;DHT22;11719;51.052;6.982;2023-07-20T00:41:07;22.00;99.90
16243;DHT22;11719;51.052;6.982;2023-07-20T00:43:33;21.90;99.90
16243;DHT22;11719;51.052;6.982;2023-07-20T00:45:59;21.90;99.90
16243;DHT22;11719;51.052;6.982;2023-07-20T00:48:25;21.90;99.90
16243;DHT22;11719;51.052;6.982;2023-07-20T00:50:51;21.90;99.90
16243;DHT22;11719;51.052;6.982;2023-07-20T00:53:17;21.90;99.90
16243;DHT22;11719;51.052;6.982;2023-07-20T00:55:43;22.00;99.90
16243;DHT22;11719;51.052;6.982;2023-07-20T00:58:09;21.90;99.90
16243;DHT22;11719;51.052;6.982;2023-07-20T01:00:35;22.00;99.90
16243;DHT22;11719;51.052;6.982;2023-07-20T01:03:01;22.00;99.90
16243;DHT22;11719;51.052;6.982;2023-07-20T01:11:37;22.00;99.90
16243;DHT22;11719;51.052;6.982;2023-07-20T01:14:05;22.00;99.90
16243;DHT22;11719;51.052;6.982;2023-07-20T01:16:32;22.10;99.90
16243;DHT22;11719;51.052;6.982;2023-07-20T01:18:58;22.00;99.90
16243;DHT22;11719;51.052;6.982;2023-07-20T01:21:40;22.10;99.90
16243;DHT22;11719;51.052;6.982;2023-07-20T01:30:45;22.00;99.90
16243;DHT22;11719;51.052;6.982;2023-07-20T01:33:15;22.00;99.90
16243;DHT22;11719;51.052;6.982;2023-07-20T01:35:42;22.00;99.90
16243;DHT22;11719;51.052;6.982;2023-07-20T01:38:11;22.00;99.90
16243;DHT22;11719;51.052;6.982;2023-07-20T01:40:38;22.10;99.90
16243;DHT22;11719;51.052;6.982;2023-07-20T01:43:04;22.10;99.90
16243;DHT22;11719;51.052;6.982;2023-07-20T01:45:30;22.00;99.90
16243;DHT22;11719;51.052;6.982;2023-07-20T01:47:56;22.00;99.90
16243;DHT22;11719;51.052;6.982;2023-07-20T01:50:22;21.90;99.90
16243;DHT22;11719;51.052;6.982;2023-07-20T01:52:48;22.00;99.90
16243;DHT22;11719;51.052;6.982;2023-07-20T01:55:14;22.00;99.90
16243;DHT22;11719;51.052;6.982;2023-07-20T01:57:40;21.90;99.90
16243;DHT22;11719;51.052;6.982;2023-07-20T02:00:06;22.00;99.90
16243;DHT22;11719;51.052;6.982;2023-07-20T02:02:34;22.00;99.90
16243;DHT22;11719;51.052;6.982;2023-07-20T02:04:59;22.00;99.90
16243;DHT22;11719;51.052;6.982;2023-07-20T02:07:25;21.90;99.90
16243;DHT22;11719;51.052;6.982;2023-07-20T02:09:51;21.90;99.90
16243;DHT22;11719;51.052;6.982;2023-07-20T02:12:17;21.90;99.90
16243;DHT22;11719;51.052;6.982;2023-07-20T02:14:43;21.80;99.90
16243;DHT22;11719;51.052;6.982;2023-07-20T02:17:09;21.70;99.90
16243;DHT22;11719;51.052;6.982;2023-07-20T02:19:36;21.70;99.90
16243;DHT22;11719;51.052;6.982;2023-07-20T02:22:02;21.80;99.90
16243;DHT22;11719;51.052;6.982;2023-07-20T02:24:28;21.80;99.90
16243;DHT22;11719;51.052;6.982;2023-07-20T02:26:54;21.80;99.90
16243;DHT22;11719;51.052;6.982;2023-07-20T02:29:20;21.80;99.90
16243;DHT22;11719;51.052;6.982;2023-07-20T02:31:45;21.80;99.90
16243;DHT22;11719;51.052;6.982;2023-07-20T02:34:11;21.70;99.90
16243;DHT22;11719;51.052;6.982;2023-07-20T02:36:37;21.80;99.90
16243;DHT22;11719;51.052;6.982;2023-07-20T02:39:03;21.80;99.90
16243;DHT22;11719;51.052;6.982;2023-07-20T02:41:30;21.80;99.90
16243;DHT22;11719;51.052;6.982;2023-07-20T02:43:58;21.80;99.90
16243;DHT22;11719;51.052;6.982;2023-07-20T02:46:23;21.80;99.90
16243;DHT22;11719;51.052;6.982;2023-07-20T02:48:49;21.80;99.90
16243;DHT22;11719;51.052;6.982;2023-07-20T02:51:15;21.80;99.90
16243;DHT22;11719;51.052;6.982;2023-07-20T02:53:40;21.80;99.90
16243;DHT22;11719;51.052;6.982;2023-07-20T02:56:07;21.80;99.90
16243;DHT22;11719;51.052;6.982;2023-07-20T02:58:34;21.80;99.90
16243;DHT22;11719;51.052;6.982;2023-07-20T03:01:03;21.80;99.90
16243;DHT22;11719;51.052;6.982;2023-07-20T03:03:28;21.80;99.90
16243;DHT22;11719;51.052;6.982;2023-07-20T03:05:54;21.80;99.90
16243;DHT22;11719;51.052;6.982;2023-07-20T03:08:21;21.80;99.90
16243;DHT22;11719;51.052;6.982;2023-07-20T03:10:47;21.80;99.90
16243;DHT22;11719;51.052;6.982;2023-07-20T03:13:13;21.80;99.90
16243;DHT22;11719;51.052;6.982;2023-07-20T03:15:39;21.70;99.90
16243;DHT22;11719;51.052;6.982;2023-07-20T03:18:05;21.70;99.90
16243;DHT22;11719;51.052;6.982;2023-07-20T03:20:31;21.70;99.90
16243;DHT22;11719;51.052;6.982;2023-07-20T03:22:57;21.70;99.90
16243;DHT22;11719;51.052;6.982;2023-07-20T03:25:22;21.70;99.90
16243;DHT22;11719;51.052;6.982;2023-07-20T03:27:48;21.70;99.90
16243;DHT22;11719;51.052;6.982;2023-07-20T03:30:14;21.60;99.90
16243;DHT22;11719;51.052;6.982;2023-07-20T03:32:40;21.60;99.90
16243;DHT22;11719;51.052;6.982;2023-07-20T03:35:06;21.60;99.90
16243;DHT22;11719;51.052;6.982;2023-07-20T03:37:32;21.50;99.90
16243;DHT22;11719;51.052;6.982;2023-07-20T03:40:00;21.50;99.90
16243;DHT22;11719;51.052;6.982;2023-07-20T03:42:26;21.50;99.90
16243;DHT22;11719;51.052;6.982;2023-07-20T03:44:52;21.50;99.90
16243;DHT22;11719;51.052;6.982;2023-07-20T03:47:18;21.40;99.90
16243;DHT22;11719;51.052;6.982;2023-07-20T03:49:43;21.50;99.90
16243;DHT22;11719;51.052;6.982;2023-07-20T03:52:09;21.40;99.90
16243;DHT22;11719;51.052;6.982;2023-07-20T03:54:35;21.40;99.90
16243;DHT22;11719;51.052;6.982;2023-07-20T03:57:01;21.50;99.90
16243;DHT22;11719;51.052;6.982;2023-07-20T03:59:26;21.40;99.90
16243;DHT22;11719;51.052;6.982;2023-07-20T04:01:52;21.40;99.90
16243;DHT22;11719;51.052;6.982;2023-07-20T04:04:18;21.40;99.90
16243;DHT22;11719;51.052;6.982;2023-07-20T04:06:44;21.40;99.90
16243;DHT22;11719;51.052;6.982;2023-07-20T04:09:11;21.40;99.90
16243;DHT22;11719;51.052;6.982;2023-07-20T04:11:38;21.30;99.90
16243;DHT22;11719;51.052;6.982;2023-07-20T04:14:04;21.30;99.90
16243;DHT22;11719;51.052;6.982;2023-07-20T04:16:30;21.30;99.90
16243;DHT22;11719;51.052;6.982;2023-07-20T04:18:56;21.30;99.90
16243;DHT22;11719;51.052;6.982;2023-07-20T04:21:22;21.30;99.90
16243;DHT22;11719;51.052;6.982;2023-07-20T04:23:48;21.30;99.90
16243;DHT22;11719;51.052;6.982;2023-07-20T04:26:14;21.40;99.90
16243;DHT22;11719;51.052;6.982;2023-07-20T04:28:40;21.40;99.90
16243;DHT22;11719;51.052;6.982;2023-07-20T04:31:15;21.40;99.90
16243;DHT22;11719;51.052;6.982;2023-07-20T04:33:41;21.40;99.90
16243;DHT22;11719;51.052;6.982;2023-07-20T04:36:07;21.40;99.90
16243;DHT22;11719;51.052;6.982;2023-07-20T04:38:33;21.40;99.90
16243;DHT22;11719;51.052;6.982;2023-07-20T04:40:59;21.20;99.90
16243;DHT22;11719;51.052;6.982;2023-07-20T04:43:27;21.30;99.90
16243;DHT22;11719;51.052;6.982;2023-07-20T04:45:54;21.30;99.90
16243;DHT22;11719;51.052;6.982;2023-07-20T04:48:20;21.30;99.90
16243;DHT22;11719;51.052;6.982;2023-07-20T04:50:46;21.30;99.90
16243;DHT22;11719;51.052;6.982;2023-07-20T04:53:17;21.30;99.90
16243;DHT22;11719;51.052;6.982;2023-07-20T04:55:50;21.30;99.90
16243;DHT22;11719;51.052;6.982;2023-07-20T04:58:18;21.30;99.90
16243;DHT22;11719;51.052;6.982;2023-07-20T05:00:44;21.20;99.90
16243;DHT22;11719;51.052;6.982;2023-07-20T05:03:10;21.10;99.90
16243;DHT22;11719;51.052;6.982;2023-07-20T05:05:36;21.20;99.90
16243;DHT22;11719;51.052;6.982;2023-07-20T05:08:03;21.20;99.90
16243;DHT22;11719;51.052;6.982;2023-07-20T05:10:29;21.20;99.90
16243;DHT22;11719;51.052;6.982;2023-07-20T05:12:55;21.10;99.90
16243;DHT22;11719;51.052;6.982;2023-07-20T05:15:21;21.10;99.90
16243;DHT22;11719;51.052;6.982;2023-07-20T05:17:46;21.20;99.90
16243;DHT22;11719;51.052;6.982;2023-07-20T05:20:14;21.20;99.90
16243;DHT22;11719;51.052;6.982;2023-07-20T05:22:40;21.10;99.90
16243;DHT22;11719;51.052;6.982;2023-07-20T05:25:07;21.10;99.90
16243;DHT22;11719;51.052;6.982;2023-07-20T05:27:34;21.10;99.90
16243;DHT22;11719;51.052;6.982;2023-07-20T05:30:02;21.00;99.90
16243;DHT22;11719;51.052;6.982;2023-07-20T05:32:28;21.00;99.90
16243;DHT22;11719;51.052;6.982;2023-07-20T05:34:54;21.00;99.90
16243;DHT22;11719;51.052;6.982;2023-07-20T05:37:20;21.10;99.90
16243;DHT22;11719;51.052;6.982;2023-07-20T05:39:46;21.00;99.90
16243;DHT22;11719;51.052;6.982;2023-07-20T05:42:12;21.00;99.90
16243;DHT22;11719;51.052;6.982;2023-07-20T05:44:39;20.90;99.90
16243;DHT22;11719;51.052;6.982;2023-07-20T05:47:05;20.90;99.90
16243;DHT22;11719;51.052;6.982;2023-07-20T05:49:31;21.00;99.90
16243;DHT22;11719;51.052;6.982;2023-07-20T05:51:57;20.90;99.90
16243;DHT22;11719;51.052;6.982;2023-07-20T05:54:26;21.00;99.90
16243;DHT22;11719;51.052;6.982;2023-07-20T05:56:52;21.00;99.90
16243;DHT22;11719;51.052;6.982;2023-07-20T05:59:18;21.00;99.90
16243;DHT22;11719;51.052;6.982;2023-07-20T06:01:45;21.00;99.90
16243;DHT22;11719;51.052;6.982;2023-07-20T06:04:14;21.00;99.90
16243;DHT22;11719;51.052;6.982;2023-07-20T06:06:40;20.90;99.90
16243;DHT22;11719;51.052;6.982;2023-07-20T06:09:06;20.80;99.90
16243;DHT22;11719;51.052;6.982;2023-07-20T06:11:35;20.70;99.90
16243;DHT22;11719;51.052;6.982;2023-07-20T06:14:01;20.80;99.90
16243;DHT22;11719;51.052;6.982;2023-07-20T06:16:27;20.70;99.90
16243;DHT22;11719;51.052;6.982;2023-07-20T06:18:53;20.70;99.90
16243;DHT22;11719;51.052;6.982;2023-07-20T06:21:18;20.80;99.90
16243;DHT22;11719;51.052;6.982;2023-07-20T06:23:45;20.70;99.90
16243;DHT22;11719;51.052;6.982;2023-07-20T06:26:11;20.70;99.90
16243;DHT22;11719;51.052;6.982;2023-07-20T06:28:37;20.70;99.90
16243;DHT22;11719;51.052;6.982;2023-07-20T06:31:03;20.70;99.90
16243;DHT22;11719;51.052;6.982;2023-07-20T06:33:29;20.70;99.90
16243;DHT22;11719;51.052;6.982;2023-07-20T06:35:55;20.80;99.90
16243;DHT22;11719;51.052;6.982;2023-07-20T06:38:23;20.80;99.90
16243;DHT22;11719;51.052;6.982;2023-07-20T06:40:49;20.90;99.90
16243;DHT22;11719;51.052;6.982;2023-07-20T06:43:16;20.90;99.90
16243;DHT22;11719;51.052;6.982;2023-07-20T06:45:42;20.90;99.90
16243;DHT22;11719;51.052;6.982;2023-07-20T06:48:08;20.90;99.90
16243;DHT22;11719;51.052;6.982;2023-07-20T06:50:34;20.90;99.90
16243;DHT22;11719;51.052;6.982;2023-07-20T06:53:00;20.90;99.90
16243;DHT22;11719;51.052;6.982;2023-07-20T06:55:26;20.90;99.90
16243;DHT22;11719;51.052;6.982;2023-07-20T06:57:52;20.90;99.90
16243;DHT22;11719;51.052;6.982;2023-07-20T07:00:18;20.90;99.90
16243;DHT22;11719;51.052;6.982;2023-07-20T07:02:44;20.90;99.90
16243;DHT22;11719;51.052;6.982;2023-07-20T07:05:10;20.90;99.90
16243;DHT22;11719;51.052;6.982;2023-07-20T07:07:36;20.90;99.90
16243;DHT22;11719;51.052;6.982;2023-07-20T07:10:02;20.90;99.90
16243;DHT22;11719;51.052;6.982;2023-07-20T07:12:30;20.90;99.90
16243;DHT22;11719;51.052;6.982;2023-07-20T07:14:56;20.90;99.90
16243;DHT22;11719;51.052;6.982;2023-07-20T07:17:22;21.00;99.90
16243;DHT22;11719;51.052;6.982;2023-07-20T07:19:48;21.00;99.90
16243;DHT22;11719;51.052;6.982;2023-07-20T07:22:13;21.00;99.90
16243;DHT22;11719;51.052;6.982;2023-07-20T07:24:39;21.00;99.90
16243;DHT22;11719;51.052;6.982;2023-07-20T07:27:08;20.90;99.90
16243;DHT22;11719;51.052;6.982;2023-07-20T07:29:34;20.90;99.90
16243;DHT22;11719;51.052;6.982;2023-07-20T07:32:01;20.90;99.90
16243;DHT22;11719;51.052;6.982;2023-07-20T07:34:27;20.90;99.90
16243;DHT22;11719;51.052;6.982;2023-07-20T07:36:53;20.90;99.90
16243;DHT22;11719;51.052;6.982;2023-07-20T07:39:19;20.80;99.90
16243;DHT22;11719;51.052;6.982;2023-07-20T07:41:45;20.90;99.90
16243;DHT22;11719;51.052;6.982;2023-07-20T07:44:10;21.00;99.90
16243;DHT22;11719;51.052;6.982;2023-07-20T07:46:37;21.00;99.90
16243;DHT22;11719;51.052;6.982;2023-07-20T07:49:02;21.00;99.90
16243;DHT22;11719;51.052;6.982;2023-07-20T07:51:29;21.00;99.90
16243;DHT22;11719;51.052;6.982;2023-07-20T07:53:55;21.10;99.90
16243;DHT22;11719;51.052;6.982;2023-07-20T07:56:20;21.20;99.90
16243;DHT22;11719;51.052;6.982;2023-07-20T07:58:50;21.10;99.90
16243;DHT22;11719;51.052;6.982;2023-07-20T08:01:17;21.20;99.90
16243;DHT22;11719;51.052;6.982;2023-07-20T08:03:44;21.10;99.90
16243;DHT22;11719;51.052;6.982;2023-07-20T08:06:13;21.10;99.90
16243;DHT22;11719;51.052;6.982;2023-07-20T08:08:39;21.20;99.90
16243;DHT22;11719;51.052;6.982;2023-07-20T08:11:05;21.20;99.90
16243;DHT22;11719;51.052;6.982;2023-07-20T08:13:31;21.20;99.90
16243;DHT22;11719;51.052;6.982;2023-07-20T08:15:57;21.30;99.90
16243;DHT22;11719;51.052;6.982;2023-07-20T08:18:24;21.40;99.90
16243;DHT22;11719;51.052;6.982;2023-07-20T08:20:50;21.40;99.90
16243;DHT22;11719;51.052;6.982;2023-07-20T08:23:16;21.40;99.90
16243;DHT22;11719;51.052;6.982;2023-07-20T08:25:42;21.30;99.90
16243;DHT22;11719;51.052;6.982;2023-07-20T08:28:16;21.30;99.90
16243;DHT22;11719;51.052;6.982;2023-07-20T08:30:44;21.40;99.90
16243;DHT22;11719;51.052;6.982;2023-07-20T08:33:16;21.50;99.90
16243;DHT22;11719;51.052;6.982;2023-07-20T08:35:46;21.60;99.90
16243;DHT22;11719;51.052;6.982;2023-07-20T08:38:13;21.60;99.90
16243;DHT22;11719;51.052;6.982;2023-07-20T08:40:44;21.70;99.90
16243;DHT22;11719;51.052;6.982;2023-07-20T08:43:11;21.60;99.90
16243;DHT22;11719;51.052;6.982;2023-07-20T08:45:39;21.60;99.90
16243;DHT22;11719;51.052;6.982;2023-07-20T08:48:07;21.60;99.90
16243;DHT22;11719;51.052;6.982;2023-07-20T08:50:34;21.60;99.90
16243;DHT22;11719;51.052;6.982;2023-07-20T08:53:01;21.60;99.90
16243;DHT22;11719;51.052;6.982;2023-07-20T08:55:28;21.60;99.90
16243;DHT22;11719;51.052;6.982;2023-07-20T08:57:55;21.60;99.90
16243;DHT22;11719;51.052;6.982;2023-07-20T09:00:23;21.70;99.90
16243;DHT22;11719;51.052;6.982;2023-07-20T09:02:50;21.70;99.90
16243;DHT22;11719;51.052;6.982;2023-07-20T09:05:18;21.70;99.90
16243;DHT22;11719;51.052;6.982;2023-07-20T09:07:45;21.80;99.90
16243;DHT22;11719;51.052;6.982;2023-07-20T09:10:11;21.80;99.90
16243;DHT22;11719;51.052;6.982;2023-07-20T09:12:39;21.90;99.90
16243;DHT22;11719;51.052;6.982;2023-07-20T09:15:06;21.90;99.90
16243;DHT22;11719;51.052;6.982;2023-07-20T09:17:33;21.90;99.90
16243;DHT22;11719;51.052;6.982;2023-07-20T09:20:04;22.00;99.90
16243;DHT22;11719;51.052;6.982;2023-07-20T09:22:34;22.00;99.90
16243;DHT22;11719;51.052;6.982;2023-07-20T09:25:00;21.90;99.90
16243;DHT22;11719;51.052;6.982;2023-07-20T09:27:38;21.90;99.90
16243;DHT22;11719;51.052;6.982;2023-07-20T09:30:05;21.90;99.90
16243;DHT22;11719;51.052;6.982;2023-07-20T09:32:39;21.80;99.90
16243;DHT22;11719;51.052;6.982;2023-07-20T09:35:11;21.80;99.90
16243;DHT22;11719;51.052;6.982;2023-07-20T09:37:39;21.90;99.90
16243;DHT22;11719;51.052;6.982;2023-07-20T09:40:06;21.90;99.90
16243;DHT22;11719;51.052;6.982;2023-07-20T09:42:35;21.90;99.90
16243;DHT22;11719;51.052;6.982;2023-07-20T09:45:02;21.90;99.90
16243;DHT22;11719;51.052;6.982;2023-07-20T09:47:28;22.00;99.90
16243;DHT22;11719;51.052;6.982;2023-07-20T09:50:00;22.00;99.90
16243;DHT22;11719;51.052;6.982;2023-07-20T09:52:26;22.10;99.90
16243;DHT22;11719;51.052;6.982;2023-07-20T09:54:52;22.20;99.90
16243;DHT22;11719;51.052;6.982;2023-07-20T09:57:21;22.20;99.90
16243;DHT22;11719;51.052;6.982;2023-07-20T09:59:47;22.20;99.90
16243;DHT22;11719;51.052;6.982;2023-07-20T10:02:27;22.20;99.90
16243;DHT22;11719;51.052;6.982;2023-07-20T10:05:02;22.20;99.90
16243;DHT22;11719;51.052;6.982;2023-07-20T10:07:30;22.30;99.90
16243;DHT22;11719;51.052;6.982;2023-07-20T10:09:59;22.30;99.90
16243;DHT22;11719;51.052;6.982;2023-07-20T10:12:25;22.40;99.90
16243;DHT22;11719;51.052;6.982;2023-07-20T10:14:59;22.40;99.90
16243;DHT22;11719;51.052;6.982;2023-07-20T10:17:36;22.40;99.90
16243;DHT22;11719;51.052;6.982;2023-07-20T10:20:04;22.40;99.90
16243;DHT22;11719;51.052;6.982;2023-07-20T10:22:35;22.40;99.90
16243;DHT22;11719;51.052;6.982;2023-07-20T10:25:01;22.40;99.90
16243;DHT22;11719;51.052;6.982;2023-07-20T10:27:28;22.30;99.90
16243;DHT22;11719;51.052;6.982;2023-07-20T10:29:54;22.30;99.90
16243;DHT22;11719;51.052;6.982;2023-07-20T10:32:21;22.30;99.90
16243;DHT22;11719;51.052;6.982;2023-07-20T10:34:51;22.30;99.90
16243;DHT22;11719;51.052;6.982;2023-07-20T10:37:46;22.30;99.90
16243;DHT22;11719;51.052;6.982;2023-07-20T10:43:11;22.50;99.90
16243;DHT22;11719;51.052;6.982;2023-07-20T10:45:49;22.60;99.90
16243;DHT22;11719;51.052;6.982;2023-07-20T10:48:19;22.60;99.90
16243;DHT22;11719;51.052;6.982;2023-07-20T10:51:14;22.70;99.90
16243;DHT22;11719;51.052;6.982;2023-07-20T10:53:45;22.70;99.90
16243;DHT22;11719;51.052;6.982;2023-07-20T10:56:19;22.70;99.90
16243;DHT22;11719;51.052;6.982;2023-07-20T10:58:45;22.70;99.90
16243;DHT22;11719;51.052;6.982;2023-07-20T11:01:16;22.80;99.90
16243;DHT22;11719;51.052;6.982;2023-07-20T11:03:43;22.70;99.90
16243;DHT22;11719;51.052;6.982;2023-07-20T11:09:13;23.10;99.90
16243;DHT22;11719;51.052;6.982;2023-07-20T11:11:45;23.20;99.90
16243;DHT22;11719;51.052;6.982;2023-07-20T11:14:30;23.20;98.70
16243;DHT22;11719;51.052;6.982;2023-07-20T11:17:13;23.20;99.90
16243;DHT22;11719;51.052;6.982;2023-07-20T11:19:40;23.10;99.30
16243;DHT22;11719;51.052;6.982;2023-07-20T11:22:07;23.10;98.80
16243;DHT22;11719;51.052;6.982;2023-07-20T11:24:42;23.10;99.00
16243;DHT22;11719;51.052;6.982;2023-07-20T11:27:07;23.10;99.90
16243;DHT22;11719;51.052;6.982;2023-07-20T11:29:34;23.10;99.90
16243;DHT22;11719;51.052;6.982;2023-07-20T11:32:02;23.10;99.90
16243;DHT22;11719;51.052;6.982;2023-07-20T11:34:30;23.10;98.50
16243;DHT22;11719;51.052;6.982;2023-07-20T11:36:57;23.20;99.40
16243;DHT22;11719;51.052;6.982;2023-07-20T11:39:23;23.20;99.90
16243;DHT22;11719;51.052;6.982;2023-07-20T11:41:53;23.20;98.50
16243;DHT22;11719;51.052;6.982;2023-07-20T11:44:22;23.20;99.90
16243;DHT22;11719;51.052;6.982;2023-07-20T11:47:08;23.20;99.90
16243;DHT22;11719;51.052;6.982;2023-07-20T11:49:42;23.20;99.30
16243;DHT22;11719;51.052;6.982;2023-07-20T11:52:16;23.20;98.00
16243;DHT22;11719;51.052;6.982;2023-07-20T11:54:43;23.20;97.70
16243;DHT22;11719;51.052;6.982;2023-07-20T11:57:19;23.20;98.40
16243;DHT22;11719;51.052;6.982;2023-07-20T12:02:27;23.10;98.60
16243;DHT22;11719;51.052;6.982;2023-07-20T12:04:57;23.10;98.10
16243;DHT22;11719;51.052;6.982;2023-07-20T12:07:25;23.10;97.40
16243;DHT22;11719;51.052;6.982;2023-07-20T12:10:05;23.00;98.20
16243;DHT22;11719;51.052;6.982;2023-07-20T12:12:38;23.00;99.30
16243;DHT22;11719;51.052;6.982;2023-07-20T12:15:22;23.00;97.60
16243;DHT22;11719;51.052;6.982;2023-07-20T12:17:51;23.10;97.60
16243;DHT22;11719;51.052;6.982;2023-07-20T12:20:33;23.10;97.90
16243;DHT22;11719;51.052;6.982;2023-07-20T12:23:05;23.10;99.90
16243;DHT22;11719;51.052;6.982;2023-07-20T12:25:38;23.10;99.60
16243;DHT22;11719;51.052;6.982;2023-07-20T12:28:16;23.10;99.50
16243;DHT22;11719;51.052;6.982;2023-07-20T12:30:44;23.00;99.10
16243;DHT22;11719;51.052;6.982;2023-07-20T12:33:11;23.00;98.10
16243;DHT22;11719;51.052;6.982;2023-07-20T12:35:41;23.00;98.40
16243;DHT22;11719;51.052;6.982;2023-07-20T12:38:06;23.00;97.40
16243;DHT22;11719;51.052;6.982;2023-07-20T12:40:33;23.00;96.90
16243;DHT22;11719;51.052;6.982;2023-07-20T12:42:59;23.10;97.40
16243;DHT22;11719;51.052;6.982;2023-07-20T12:45:24;23.10;97.20
16243;DHT22;11719;51.052;6.982;2023-07-20T12:47:50;23.10;98.70
16243;DHT22;11719;51.052;6.982;2023-07-20T12:50:16;23.10;97.20
16243;DHT22;11719;51.052;6.982;2023-07-20T12:52:42;23.30;96.80
16243;DHT22;11719;51.052;6.982;2023-07-20T12:55:08;23.40;96.20
16243;DHT22;11719;51.052;6.982;2023-07-20T12:57:35;23.30;97.40
16243;DHT22;11719;51.052;6.982;2023-07-20T13:00:03;23.40;97.40
16243;DHT22;11719;51.052;6.982;2023-07-20T13:02:32;23.30;96.60
16243;DHT22;11719;51.052;6.982;2023-07-20T13:04:58;23.30;97.40
16243;DHT22;11719;51.052;6.982;2023-07-20T13:07:37;23.30;96.90
16243;DHT22;11719;51.052;6.982;2023-07-20T13:10:05;23.20;97.70
16243;DHT22;11719;51.052;6.982;2023-07-20T13:12:32;23.20;97.00
16243;DHT22;11719;51.052;6.982;2023-07-20T13:14:59;23.20;98.70
16243;DHT22;11719;51.052;6.982;2023-07-20T13:17:27;23.20;97.00
16243;DHT22;11719;51.052;6.982;2023-07-20T13:19:55;23.20;98.10
16243;DHT22;11719;51.052;6.982;2023-07-20T13:22:21;23.10;99.90
16243;DHT22;11719;51.052;6.982;2023-07-20T13:24:48;23.10;99.90
16243;DHT22;11719;51.052;6.982;2023-07-20T13:27:16;23.10;97.30
16243;DHT22;11719;51.052;6.982;2023-07-20T13:29:42;23.10;99.60
16243;DHT22;11719;51.052;6.982;2023-07-20T13:32:08;23.10;98.40
16243;DHT22;11719;51.052;6.982;2023-07-20T13:34:34;23.10;98.10
16243;DHT22;11719;51.052;6.982;2023-07-20T13:37:01;23.20;97.60
16243;DHT22;11719;51.052;6.982;2023-07-20T13:39:27;23.20;99.70
16243;DHT22;11719;51.052;6.982;2023-07-20T13:41:54;23.10;99.90
16243;DHT22;11719;51.052;6.982;2023-07-20T13:44:20;23.10;99.40
16243;DHT22;11719;51.052;6.982;2023-07-20T13:46:47;23.10;99.20
16243;DHT22;11719;51.052;6.982;2023-07-20T13:49:13;23.10;99.80
16243;DHT22;11719;51.052;6.982;2023-07-20T13:51:39;23.10;97.50
16243;DHT22;11719;51.052;6.982;2023-07-20T13:54:06;23.10;98.00
16243;DHT22;11719;51.052;6.982;2023-07-20T13:56:32;23.10;98.90
16243;DHT22;11719;51.052;6.982;2023-07-20T13:58:58;23.10;97.70
16243;DHT22;11719;51.052;6.982;2023-07-20T14:01:24;23.20;97.80
16243;DHT22;11719;51.052;6.982;2023-07-20T14:03:50;23.40;98.00
16243;DHT22;11719;51.052;6.982;2023-07-20T14:06:17;23.40;98.60
16243;DHT22;11719;51.052;6.982;2023-07-20T14:08:43;23.40;98.20
16243;DHT22;11719;51.052;6.982;2023-07-20T14:11:12;23.50;99.30
16243;DHT22;11719;51.052;6.982;2023-07-20T14:13:38;23.70;96.70
16243;DHT22;11719;51.052;6.982;2023-07-20T14:16:04;24.00;95.70
16243;DHT22;11719;51.052;6.982;2023-07-20T14:18:30;24.10;94.90
16243;DHT22;11719;51.052;6.982;2023-07-20T14:20:56;24.10;95.90
16243;DHT22;11719;51.052;6.982;2023-07-20T14:23:22;24.20;97.50
16243;DHT22;11719;51.052;6.982;2023-07-20T14:25:48;24.30;95.40
16243;DHT22;11719;51.052;6.982;2023-07-20T14:28:14;24.50;95.70
16243;DHT22;11719;51.052;6.982;2023-07-20T14:30:41;24.50;96.50
16243;DHT22;11719;51.052;6.982;2023-07-20T14:33:07;24.60;96.40
16243;DHT22;11719;51.052;6.982;2023-07-20T14:35:33;24.60;94.80
16243;DHT22;11719;51.052;6.982;2023-07-20T14:38:00;24.60;94.30
16243;DHT22;11719;51.052;6.982;2023-07-20T14:40:26;24.60;97.40
16243;DHT22;11719;51.052;6.982;2023-07-20T14:42:52;24.70;95.00
16243;DHT22;11719;51.052;6.982;2023-07-20T14:45:18;24.90;95.20
16243;DHT22;11719;51.052;6.982;2023-07-20T14:47:44;24.80;94.90
16243;DHT22;11719;51.052;6.982;2023-07-20T14:50:11;24.60;96.20
16243;DHT22;11719;51.052;6.982;2023-07-20T14:52:37;24.40;96.90
16243;DHT22;11719;51.052;6.982;2023-07-20T14:55:03;24.20;97.60
16243;DHT22;11719;51.052;6.982;2023-07-20T14:57:30;24.10;97.70
16243;DHT22;11719;51.052;6.982;2023-07-20T14:59:55;23.90;98.50
16243;DHT22;11719;51.052;6.982;2023-07-20T15:02:21;23.70;99.40
16243;DHT22;11719;51.052;6.982;2023-07-20T15:04:51;23.60;99.30
16243;DHT22;11719;51.052;6.982;2023-07-20T15:07:18;23.50;99.90
16243;DHT22;11719;51.052;6.982;2023-07-20T15:09:45;23.50;99.90
16243;DHT22;11719;51.052;6.982;2023-07-20T15:12:11;23.40;99.90
16243;DHT22;11719;51.052;6.982;2023-07-20T15:14:41;23.40;99.90
16243;DHT22;11719;51.052;6.982;2023-07-20T15:17:08;23.40;99.90
16243;DHT22;11719;51.052;6.982;2023-07-20T15:19:34;23.30;99.90
16243;DHT22;11719;51.052;6.982;2023-07-20T15:22:01;23.20;99.90
16243;DHT22;11719;51.052;6.982;2023-07-20T15:24:29;23.20;98.70
16243;DHT22;11719;51.052;6.982;2023-07-20T15:26:55;23.30;99.90
16243;DHT22;11719;51.052;6.982;2023-07-20T15:29:20;23.20;99.90
16243;DHT22;11719;51.052;6.982;2023-07-20T15:31:47;23.20;99.90
16243;DHT22;11719;51.052;6.982;2023-07-20T15:34:13;23.20;99.90
16243;DHT22;11719;51.052;6.982;2023-07-20T15:36:41;23.10;99.90
16243;DHT22;11719;51.052;6.982;2023-07-20T15:39:09;23.00;99.90
16243;DHT22;11719;51.052;6.982;2023-07-20T15:41:35;23.00;99.90
16243;DHT22;11719;51.052;6.982;2023-07-20T15:44:01;22.80;99.90
16243;DHT22;11719;51.052;6.982;2023-07-20T15:49:05;22.80;99.90
16243;DHT22;11719;51.052;6.982;2023-07-20T15:51:32;22.80;99.90
16243;DHT22;11719;51.052;6.982;2023-07-20T15:54:02;22.90;99.90
16243;DHT22;11719;51.052;6.982;2023-07-20T15:56:28;22.90;99.90